Saint David, Arizona
Current Conditions -  °F | °C
As of 8:56 AM on Sunday 25 Jan 2015 (Local Time) from KFHU Reporting Station
Clear Clear  
Wind Chill: 47°   Ceiling: Unl
Heat Index: 47°   Visibility: 10mi
Dew Point: 15°   Wind: 3mph
Humidity: 28%   Direction: 90°E
Pressure: 30.18"   Gusts: NA
Location:  31.9°N, 110.22°W
Report Text: KFHU 251556Z AUTO 09003KT 10SM CLR 08/M09 A3018 RMK AO2 SLP210 T00831094 $
Loading
Personal Weather Stations






























Interactive Weather Map New forecast layout! Learn more

10-Day Weather Forecast

Advertisements
Track Severe Weather on mobile